sensor_id;sensor_type;location;lat;lon;timestamp;P1;durP1;ratioP1;P2;durP2;ratioP2
37851;SDS011;23691;52.486;4.650;2023-04-03T17:31:21;6.55;;;1.58;;
37851;SDS011;23691;52.486;4.650;2023-04-03T17:33:48;6.63;;;2.00;;
37851;SDS011;23691;52.486;4.650;2023-04-03T17:36:13;9.77;;;2.83;;
37851;SDS011;23691;52.486;4.650;2023-04-03T17:38:38;8.48;;;2.88;;
37851;SDS011;23691;52.486;4.650;2023-04-03T17:41:06;17.13;;;8.32;;
37851;SDS011;23691;52.486;4.650;2023-04-03T17:43:33;19.45;;;9.00;;
37851;SDS011;23691;52.486;4.650;2023-04-03T17:46:00;19.20;;;12.13;;
37851;SDS011;23691;52.486;4.650;2023-04-03T17:48:28;27.35;;;16.40;;
37851;SDS011;23691;52.486;4.650;2023-04-03T17:50:57;21.23;;;11.30;;
37851;SDS011;23691;52.486;4.650;2023-04-03T17:53:23;11.25;;;5.35;;
37851;SDS011;23691;52.486;4.650;2023-04-03T17:55:49;10.70;;;4.10;;
37851;SDS011;23691;52.486;4.650;2023-04-03T17:58:14;9.43;;;3.13;;
37851;SDS011;23691;52.486;4.650;2023-04-03T18:00:40;8.20;;;2.65;;
37851;SDS011;23691;52.486;4.650;2023-04-03T18:03:05;7.38;;;2.10;;
37851;SDS011;23691;52.486;4.650;2023-04-03T18:05:31;9.13;;;2.10;;
37851;SDS011;23691;52.486;4.650;2023-04-03T18:07:56;5.60;;;1.88;;
37851;SDS011;23691;52.486;4.650;2023-04-03T18:10:23;7.93;;;2.33;;
37851;SDS011;23691;52.486;4.650;2023-04-03T18:12:50;9.88;;;3.20;;
37851;SDS011;23691;52.486;4.650;2023-04-03T18:15:16;10.50;;;3.88;;
37851;SDS011;23691;52.486;4.650;2023-04-03T18:17:41;10.15;;;3.85;;
37851;SDS011;23691;52.486;4.650;2023-04-03T18:20:06;10.38;;;3.40;;
37851;SDS011;23691;52.486;4.650;2023-04-03T18:22:34;10.98;;;3.60;;
37851;SDS011;23691;52.486;4.650;2023-04-03T18:24:59;8.93;;;2.95;;
37851;SDS011;23691;52.486;4.650;2023-04-03T18:30:16;8.55;;;3.22;;
37851;SDS011;23691;52.486;4.650;2023-04-03T18:33:24;10.23;;;3.93;;
37851;SDS011;23691;52.486;4.650;2023-04-03T18:36:09;10.60;;;3.45;;
37851;SDS011;23691;52.486;4.650;2023-04-03T18:39:08;13.63;;;5.60;;
37851;SDS011;23691;52.486;4.650;2023-04-03T18:41:57;12.70;;;5.47;;
37851;SDS011;23691;52.486;4.650;2023-04-03T18:44:57;9.85;;;3.30;;
37851;SDS011;23691;52.486;4.650;2023-04-03T18:47:50;11.05;;;3.30;;
37851;SDS011;23691;52.486;4.650;2023-04-03T18:50:49;14.02;;;3.60;;
37851;SDS011;23691;52.486;4.650;2023-04-03T18:53:51;10.18;;;3.38;;
37851;SDS011;23691;52.486;4.650;2023-04-03T18:56:16;8.75;;;2.83;;
37851;SDS011;23691;52.486;4.650;2023-04-03T18:58:42;8.60;;;2.67;;
37851;SDS011;23691;52.486;4.650;2023-04-03T19:01:07;9.00;;;2.60;;
37851;SDS011;23691;52.486;4.650;2023-04-03T19:03:33;9.98;;;2.45;;
37851;SDS011;23691;52.486;4.650;2023-04-03T19:06:01;8.05;;;2.15;;
37851;SDS011;23691;52.486;4.650;2023-04-03T19:08:27;11.05;;;3.70;;
37851;SDS011;23691;52.486;4.650;2023-04-03T19:10:53;14.05;;;6.97;;
37851;SDS011;23691;52.486;4.650;2023-04-03T19:13:18;14.15;;;6.40;;
37851;SDS011;23691;52.486;4.650;2023-04-03T19:18:12;12.35;;;5.60;;
37851;SDS011;23691;52.486;4.650;2023-04-03T19:20:38;11.73;;;4.32;;
37851;SDS011;23691;52.486;4.650;2023-04-03T19:23:03;9.68;;;3.40;;
37851;SDS011;23691;52.486;4.650;2023-04-03T19:25:28;9.57;;;3.20;;
37851;SDS011;23691;52.486;4.650;2023-04-03T19:27:54;10.18;;;2.70;;
37851;SDS011;23691;52.486;4.650;2023-04-03T19:30:20;8.75;;;2.42;;
37851;SDS011;23691;52.486;4.650;2023-04-03T19:32:45;11.73;;;3.30;;
37851;SDS011;23691;52.486;4.650;2023-04-03T19:35:11;25.52;;;14.55;;
37851;SDS011;23691;52.486;4.650;2023-04-03T19:37:38;25.02;;;14.25;;
37851;SDS011;23691;52.486;4.650;2023-04-03T19:40:03;17.13;;;7.75;;
37851;SDS011;23691;52.486;4.650;2023-04-03T19:42:29;12.07;;;5.78;;
37851;SDS011;23691;52.486;4.650;2023-04-03T19:44:56;13.38;;;4.57;;
37851;SDS011;23691;52.486;4.650;2023-04-03T19:47:22;10.77;;;3.30;;
37851;SDS011;23691;52.486;4.650;2023-04-03T19:49:48;9.27;;;3.30;;
37851;SDS011;23691;52.486;4.650;2023-04-03T19:52:13;10.68;;;3.38;;
37851;SDS011;23691;52.486;4.650;2023-04-03T19:54:39;9.27;;;3.38;;
37851;SDS011;23691;52.486;4.650;2023-04-03T19:57:04;8.93;;;3.00;;
37851;SDS011;23691;52.486;4.650;2023-04-03T19:59:31;9.68;;;2.80;;
37851;SDS011;23691;52.486;4.650;2023-04-03T20:01:56;11.60;;;3.17;;
37851;SDS011;23691;52.486;4.650;2023-04-03T20:04:21;9.30;;;2.95;;
37851;SDS011;23691;52.486;4.650;2023-04-03T20:06:47;9.65;;;2.63;;
37851;SDS011;23691;52.486;4.650;2023-04-03T20:09:14;9.40;;;2.33;;
37851;SDS011;23691;52.486;4.650;2023-04-03T20:11:42;7.10;;;2.50;;
37851;SDS011;23691;52.486;4.650;2023-04-03T20:14:11;8.02;;;2.28;;
37851;SDS011;23691;52.486;4.650;2023-04-03T20:16:37;7.95;;;1.95;;
37851;SDS011;23691;52.486;4.650;2023-04-03T20:19:03;6.25;;;1.80;;
37851;SDS011;23691;52.486;4.650;2023-04-03T20:21:29;7.20;;;2.05;;
37851;SDS011;23691;52.486;4.650;2023-04-03T20:23:57;5.53;;;1.75;;
37851;SDS011;23691;52.486;4.650;2023-04-03T20:26:24;7.55;;;2.10;;
37851;SDS011;23691;52.486;4.650;2023-04-03T20:28:52;6.50;;;1.80;;
37851;SDS011;23691;52.486;4.650;2023-04-03T20:31:20;8.88;;;2.08;;
37851;SDS011;23691;52.486;4.650;2023-04-03T20:33:48;8.77;;;2.00;;
37851;SDS011;23691;52.486;4.650;2023-04-03T20:36:14;8.32;;;1.95;;
37851;SDS011;23691;52.486;4.650;2023-04-03T20:38:40;7.35;;;1.80;;
37851;SDS011;23691;52.486;4.650;2023-04-03T20:41:06;8.77;;;2.05;;
37851;SDS011;23691;52.486;4.650;2023-04-03T20:43:33;7.82;;;1.85;;
37851;SDS011;23691;52.486;4.650;2023-04-03T20:45:59;10.55;;;2.08;;
37851;SDS011;23691;52.486;4.650;2023-04-03T20:48:26;7.40;;;1.95;;
37851;SDS011;23691;52.486;4.650;2023-04-03T20:50:57;7.40;;;1.80;;
37851;SDS011;23691;52.486;4.650;2023-04-03T20:53:23;7.82;;;1.73;;
37851;SDS011;23691;52.486;4.650;2023-04-03T20:55:55;6.68;;;1.90;;
37851;SDS011;23691;52.486;4.650;2023-04-03T20:58:23;7.65;;;1.90;;
37851;SDS011;23691;52.486;4.650;2023-04-03T21:00:59;9.15;;;1.90;;
37851;SDS011;23691;52.486;4.650;2023-04-03T21:03:27;7.47;;;2.00;;
37851;SDS011;23691;52.486;4.650;2023-04-03T21:20:19;8.10;;;1.95;;
37851;SDS011;23691;52.486;4.650;2023-04-03T21:22:44;9.10;;;2.10;;
37851;SDS011;23691;52.486;4.650;2023-04-03T21:25:10;7.57;;;1.77;;
37851;SDS011;23691;52.486;4.650;2023-04-03T21:27:35;9.57;;;2.20;;
37851;SDS011;23691;52.486;4.650;2023-04-03T21:30:02;7.65;;;2.22;;
37851;SDS011;23691;52.486;4.650;2023-04-03T21:32:28;9.02;;;2.13;;
37851;SDS011;23691;52.486;4.650;2023-04-03T21:34:54;9.38;;;2.47;;
37851;SDS011;23691;52.486;4.650;2023-04-03T21:37:20;8.10;;;2.45;;
37851;SDS011;23691;52.486;4.650;2023-04-03T21:39:45;7.78;;;1.80;;
37851;SDS011;23691;52.486;4.650;2023-04-03T21:42:11;13.90;;;2.20;;
37851;SDS011;23691;52.486;4.650;2023-04-03T21:44:37;8.68;;;1.92;;
37851;SDS011;23691;52.486;4.650;2023-04-03T21:47:02;10.88;;;2.15;;
37851;SDS011;23691;52.486;4.650;2023-04-03T21:49:28;7.15;;;2.00;;
37851;SDS011;23691;52.486;4.650;2023-04-03T21:51:54;5.43;;;1.63;;
37851;SDS011;23691;52.486;4.650;2023-04-03T21:54:23;9.60;;;2.10;;
37851;SDS011;23691;52.486;4.650;2023-04-03T21:56:48;8.15;;;1.83;;
37851;SDS011;23691;52.486;4.650;2023-04-03T21:59:16;7.85;;;2.05;;
37851;SDS011;23691;52.486;4.650;2023-04-03T22:01:41;7.75;;;2.28;;
37851;SDS011;23691;52.486;4.650;2023-04-03T22:04:07;8.25;;;2.00;;
37851;SDS011;23691;52.486;4.650;2023-04-03T22:06:32;8.73;;;1.92;;
37851;SDS011;23691;52.486;4.650;2023-04-03T22:08:58;9.90;;;2.00;;
37851;SDS011;23691;52.486;4.650;2023-04-03T22:11:23;7.47;;;1.83;;
37851;SDS011;23691;52.486;4.650;2023-04-03T22:13:51;8.02;;;2.13;;
37851;SDS011;23691;52.486;4.650;2023-04-03T22:16:21;6.80;;;1.90;;
37851;SDS011;23691;52.486;4.650;2023-04-03T22:18:47;8.65;;;2.00;;
37851;SDS011;23691;52.486;4.650;2023-04-03T22:21:16;7.43;;;1.95;;
37851;SDS011;23691;52.486;4.650;2023-04-03T22:23:42;8.48;;;2.17;;
37851;SDS011;23691;52.486;4.650;2023-04-03T22:26:08;8.38;;;2.20;;
37851;SDS011;23691;52.486;4.650;2023-04-03T22:28:41;8.77;;;2.05;;
37851;SDS011;23691;52.486;4.650;2023-04-03T22:31:11;6.35;;;1.80;;
37851;SDS011;23691;52.486;4.650;2023-04-03T22:33:40;7.55;;;1.73;;
37851;SDS011;23691;52.486;4.650;2023-04-03T22:36:08;7.15;;;2.05;;
37851;SDS011;23691;52.486;4.650;2023-04-03T22:38:35;8.77;;;2.10;;
37851;SDS011;23691;52.486;4.650;2023-04-03T22:41:07;9.38;;;2.22;;
37851;SDS011;23691;52.486;4.650;2023-04-03T22:43:35;6.15;;;1.70;;
37851;SDS011;23691;52.486;4.650;2023-04-03T22:46:02;7.78;;;1.67;;
37851;SDS011;23691;52.486;4.650;2023-04-03T22:48:39;11.98;;;2.00;;
37851;SDS011;23691;52.486;4.650;2023-04-03T22:51:07;9.02;;;1.80;;
37851;SDS011;23691;52.486;4.650;2023-04-03T22:53:32;7.43;;;1.85;;
37851;SDS011;23691;52.486;4.650;2023-04-03T22:56:01;9.73;;;1.98;;
37851;SDS011;23691;52.486;4.650;2023-04-03T22:58:28;6.28;;;1.67;;
37851;SDS011;23691;52.486;4.650;2023-04-03T23:00:54;7.88;;;2.03;;
37851;SDS011;23691;52.486;4.650;2023-04-03T23:03:27;7.90;;;1.70;;
37851;SDS011;23691;52.486;4.650;2023-04-03T23:05:52;7.50;;;1.80;;
37851;SDS011;23691;52.486;4.650;2023-04-03T23:08:20;7.77;;;2.00;;
37851;SDS011;23691;52.486;4.650;2023-04-03T23:10:45;6.35;;;1.67;;
37851;SDS011;23691;52.486;4.650;2023-04-03T23:13:11;7.43;;;1.70;;
37851;SDS011;23691;52.486;4.650;2023-04-03T23:15:37;8.40;;;2.08;;
37851;SDS011;23691;52.486;4.650;2023-04-03T23:18:02;7.28;;;1.70;;
37851;SDS011;23691;52.486;4.650;2023-04-03T23:20:30;8.65;;;1.70;;
37851;SDS011;23691;52.486;4.650;2023-04-03T23:22:55;7.63;;;1.63;;
37851;SDS011;23691;52.486;4.650;2023-04-03T23:25:24;8.10;;;2.00;;
37851;SDS011;23691;52.486;4.650;2023-04-03T23:27:50;6.70;;;1.75;;
37851;SDS011;23691;52.486;4.650;2023-04-03T23:30:19;6.78;;;1.80;;
37851;SDS011;23691;52.486;4.650;2023-04-03T23:32:48;6.25;;;1.75;;
37851;SDS011;23691;52.486;4.650;2023-04-03T23:35:14;9.63;;;1.98;;
37851;SDS011;23691;52.486;4.650;2023-04-03T23:37:39;6.25;;;2.00;;
37851;SDS011;23691;52.486;4.650;2023-04-03T23:40:04;8.18;;;1.90;;
37851;SDS011;23691;52.486;4.650;2023-04-03T23:42:30;6.75;;;2.00;;
37851;SDS011;23691;52.486;4.650;2023-04-03T23:44:56;8.52;;;1.70;;
37851;SDS011;23691;52.486;4.650;2023-04-03T23:47:22;10.32;;;2.08;;
37851;SDS011;23691;52.486;4.650;2023-04-03T23:49:50;9.27;;;1.98;;
37851;SDS011;23691;52.486;4.650;2023-04-03T23:52:15;7.18;;;2.10;;
37851;SDS011;23691;52.486;4.650;2023-04-03T23:54:43;6.65;;;1.98;;
37851;SDS011;23691;52.486;4.650;2023-04-03T23:57:08;7.25;;;1.90;;
37851;SDS011;23691;52.486;4.650;2023-04-03T23:59:34;8.85;;;2.05;;
